Time;durP1;ratioP1;P1;durP2;ratioP2;P2;SDS_P1;SDS_P2;PMS_P1;PMS_P2;Temp;Humidity;BMP_temperature;BMP_pressure;BME280_temperature;BME280_humidity;BME280_pressure;Samples;Min_cycle;Max_cycle;Signal;HPM_P1;HPM_P2
2022/03/03 00:00:15;;;;;;;73.30;39.03;;;2.30;99.90;;;;;;5089169;28;20065;-73
2022/03/03 00:02:42;;;;;;;72.35;39.72;;;2.20;99.90;;;;;;5088359;28;20044;-73
2022/03/03 00:05:08;;;;;;;73.45;38.10;;;2.20;99.90;;;;;;5088949;28;20127;-74
2022/03/03 00:07:34;;;;;;;75.18;38.70;;;2.20;99.90;;;;;;5072343;28;20131;-72
2022/03/03 00:10:00;;;;;;;73.15;38.92;;;2.20;99.90;;;;;;5072343;28;20051;-73
2022/03/03 00:12:25;;;;;;;73.00;39.17;;;2.20;99.90;;;;;;5088351;28;20053;-74
2022/03/03 00:14:51;;;;;;;71.13;39.40;;;2.20;99.90;;;;;;5088217;28;20037;-73
2022/03/03 00:17:17;;;;;;;69.15;39.08;;;2.20;99.90;;;;;;5088117;28;20036;-75
2022/03/03 00:19:42;;;;;;;68.65;38.63;;;2.10;99.90;;;;;;5072189;28;20049;-73
2022/03/03 00:22:09;;;;;;;67.20;38.00;;;2.10;99.90;;;;;;5089478;28;20074;-75
2022/03/03 00:24:35;;;;;;;68.22;37.80;;;2.10;99.90;;;;;;5071986;28;20096;-72
2022/03/03 00:27:00;;;;;;;70.13;37.53;;;2.10;99.90;;;;;;5071795;28;20063;-71
2022/03/03 00:29:26;;;;;;;68.00;37.95;;;2.10;99.90;;;;;;5088484;28;20028;-73
2022/03/03 00:31:52;;;;;;;67.85;38.63;;;2.10;99.90;;;;;;5088676;28;20032;-73
2022/03/03 00:34:18;;;;;;;70.40;38.75;;;2.10;99.90;;;;;;5088256;28;20042;-73
2022/03/03 00:36:43;;;;;;;66.47;37.28;;;2.00;99.90;;;;;;5087197;28;20043;-72
2022/03/03 00:39:09;;;;;;;65.13;35.63;;;2.00;99.90;;;;;;5081929;28;20032;-72
2022/03/03 00:41:35;;;;;;;66.68;37.50;;;2.00;99.90;;;;;;5101063;28;20048;-73
2022/03/03 00:44:01;;;;;;;69.43;37.65;;;2.00;99.90;;;;;;5082772;28;20116;-73
2022/03/03 00:46:26;;;;;;;68.10;36.05;;;2.00;99.90;;;;;;5085546;28;20044;-72
2022/03/03 00:48:54;;;;;;;62.92;36.53;;;2.00;99.90;;;;;;5087227;28;20388;-73
2022/03/03 00:51:21;;;;;;;64.65;37.28;;;2.00;99.90;;;;;;5068864;28;20052;-73
2022/03/03 00:53:47;;;;;;;62.20;35.60;;;1.90;99.90;;;;;;5067409;28;20041;-73
2022/03/03 00:56:13;;;;;;;62.97;35.15;;;1.90;99.90;;;;;;5100483;28;20048;-75
2022/03/03 00:58:39;;;;;;;61.25;35.38;;;1.90;99.90;;;;;;5100985;28;20040;-73
2022/03/03 01:01:05;;;;;;;64.88;35.92;;;1.90;99.90;;;;;;5067168;28;20051;-73
2022/03/03 01:03:31;;;;;;;62.95;35.25;;;1.80;99.90;;;;;;5066865;28;20036;-73
2022/03/03 01:05:56;;;;;;;63.10;35.20;;;1.80;99.90;;;;;;5067950;28;20040;-73
2022/03/03 01:08:22;;;;;;;58.40;34.50;;;1.80;99.90;;;;;;5067796;28;20045;-72
2022/03/03 01:10:48;;;;;;;57.83;34.90;;;1.80;99.90;;;;;;5066971;28;20106;-73
2022/03/03 01:13:15;;;;;;;58.55;33.85;;;1.80;99.90;;;;;;5100503;28;20045;-74
2022/03/03 01:15:41;;;;;;;63.30;35.42;;;1.80;99.90;;;;;;5101478;28;20059;-74
2022/03/03 01:18:06;;;;;;;62.08;34.35;;;1.80;99.90;;;;;;5066705;28;20044;-72
2022/03/03 01:20:32;;;;;;;59.33;34.03;;;1.70;99.90;;;;;;5083913;28;20048;-73
2022/03/03 01:22:58;;;;;;;60.30;35.03;;;1.70;99.90;;;;;;5081096;28;20124;-73
2022/03/03 01:25:24;;;;;;;63.75;33.40;;;1.70;99.90;;;;;;5030308;28;20096;-72
2022/03/03 01:27:50;;;;;;;59.08;33.95;;;1.70;99.90;;;;;;5079701;28;20476;-72
2022/03/03 01:30:16;;;;;;;62.03;34.00;;;1.60;99.90;;;;;;5077813;28;20034;-73
2022/03/03 01:32:41;;;;;;;54.38;31.70;;;1.60;99.90;;;;;;5078366;28;20063;-73
2022/03/03 01:35:07;;;;;;;57.67;33.78;;;1.60;99.90;;;;;;5078285;28;20041;-74
2022/03/03 01:37:33;;;;;;;56.67;32.83;;;1.50;99.90;;;;;;5073679;28;20044;-74
2022/03/03 01:39:59;;;;;;;57.25;32.92;;;1.50;99.90;;;;;;5069228;28;20102;-73
2022/03/03 01:42:25;;;;;;;58.45;32.35;;;1.50;99.90;;;;;;5086224;28;20499;-73
2022/03/03 01:44:51;;;;;;;56.67;32.60;;;1.40;99.90;;;;;;5083459;28;20045;-73
2022/03/03 01:47:19;;;;;;;57.22;31.92;;;1.40;99.90;;;;;;5099861;28;20048;-73
2022/03/03 01:49:45;;;;;;;53.58;31.85;;;1.40;99.90;;;;;;5049028;28;20049;-73
2022/03/03 01:52:11;;;;;;;57.95;32.72;;;1.30;99.90;;;;;;5099930;28;20044;-73
2022/03/03 01:54:37;;;;;;;56.60;32.90;;;1.30;99.90;;;;;;5098299;28;20067;-73
2022/03/03 01:57:03;;;;;;;54.25;31.60;;;1.20;99.90;;;;;;5098762;28;20037;-72
2022/03/03 01:59:30;;;;;;;54.97;32.35;;;1.20;99.90;;;;;;5082134;28;20037;-73
2022/03/03 02:01:56;;;;;;;60.72;32.60;;;1.30;99.90;;;;;;5082635;28;20063;-73
2022/03/03 02:04:22;;;;;;;55.88;32.83;;;1.20;99.90;;;;;;5048308;28;20052;-73
2022/03/03 02:06:47;;;;;;;57.55;33.17;;;1.10;99.90;;;;;;5065241;28;20044;-74
2022/03/03 02:09:13;;;;;;;56.42;32.83;;;1.10;99.90;;;;;;5065438;28;20071;-74
2022/03/03 02:11:39;;;;;;;60.28;32.83;;;1.10;99.90;;;;;;5098736;28;20049;-72
2022/03/03 02:14:05;;;;;;;58.85;33.50;;;1.00;99.90;;;;;;5099365;28;20044;-74
2022/03/03 02:16:30;;;;;;;57.20;32.33;;;1.00;99.90;;;;;;5082948;28;20104;-72
2022/03/03 02:18:56;;;;;;;59.40;33.13;;;1.00;99.90;;;;;;5086646;28;20079;-73
2022/03/03 02:21:22;;;;;;;58.72;33.92;;;1.00;99.90;;;;;;5088305;28;20478;-74
2022/03/03 02:23:48;;;;;;;57.03;33.00;;;0.90;99.90;;;;;;5088173;28;20048;-73
2022/03/03 02:26:22;;;;;;;55.35;32.10;;;0.90;99.90;;;;;;5088723;28;20088;-72
2022/03/03 02:28:50;;;;;;;55.65;31.92;;;0.90;99.90;;;;;;5088085;28;20040;-73
2022/03/03 02:31:16;;;;;;;52.53;31.70;;;0.90;99.90;;;;;;5088032;28;20033;-72
2022/03/03 02:33:42;;;;;;;52.38;30.45;;;0.80;99.90;;;;;;5054095;28;20428;-72
2022/03/03 02:36:20;;;;;;;55.28;32.10;;;0.80;99.90;;;;;;5084814;28;20035;-74
2022/03/03 02:38:46;;;;;;;54.67;30.15;;;0.90;99.90;;;;;;5101557;28;20036;-72
2022/03/03 02:41:12;;;;;;;51.35;30.52;;;0.80;99.90;;;;;;5051918;28;20052;-71
2022/03/03 02:43:38;;;;;;;53.33;31.20;;;0.80;99.90;;;;;;5067396;28;20044;-72
2022/03/03 02:46:05;;;;;;;51.90;30.67;;;0.80;99.90;;;;;;5101191;28;20072;-72
2022/03/03 02:48:31;;;;;;;50.78;30.70;;;0.80;99.90;;;;;;5101741;28;20045;-71
2022/03/03 02:50:57;;;;;;;51.25;30.23;;;0.80;99.90;;;;;;5070610;28;20063;-72
2022/03/03 02:53:23;;;;;;;53.58;31.08;;;0.70;99.90;;;;;;5088154;28;20071;-72
2022/03/03 02:55:49;;;;;;;52.95;31.92;;;0.70;99.90;;;;;;5087794;28;20036;-73
2022/03/03 02:58:15;;;;;;;50.83;30.63;;;0.70;99.90;;;;;;5088186;28;20562;-72
2022/03/03 03:00:42;;;;;;;57.97;31.48;;;0.60;99.90;;;;;;5086999;28;20526;-72
2022/03/03 03:03:09;;;;;;;51.28;29.25;;;0.60;99.90;;;;;;5070186;28;20036;-72
2022/03/03 03:05:35;;;;;;;51.63;30.00;;;0.60;99.90;;;;;;5087486;28;20070;-72
2022/03/03 03:08:01;;;;;;;54.25;31.70;;;0.60;99.90;;;;;;5069994;28;20051;-73
2022/03/03 03:10:27;;;;;;;51.45;30.25;;;0.60;99.90;;;;;;5086497;28;20048;-72
2022/03/03 03:12:54;;;;;;;51.95;30.98;;;0.50;99.90;;;;;;5086788;28;20045;-72
2022/03/03 03:15:20;;;;;;;50.90;30.10;;;0.60;99.90;;;;;;5078503;28;20051;-72
2022/03/03 03:17:46;;;;;;;54.38;31.10;;;0.60;99.90;;;;;;5066682;28;20064;-72
2022/03/03 03:20:12;;;;;;;49.55;29.58;;;0.50;99.90;;;;;;5066896;28;20475;-72
2022/03/03 03:22:38;;;;;;;50.55;30.00;;;0.50;99.90;;;;;;5066313;28;20187;-72
2022/03/03 03:25:09;;;;;;;51.60;30.33;;;0.50;99.90;;;;;;5085818;28;20044;-73
2022/03/03 03:27:36;;;;;;;51.65;29.38;;;0.50;99.90;;;;;;5069738;28;20044;-74
2022/03/03 03:30:04;;;;;;;50.25;29.58;;;0.50;99.90;;;;;;5069951;28;20048;-73
2022/03/03 03:32:29;;;;;;;55.58;32.45;;;0.50;99.90;;;;;;5085498;28;20048;-72
2022/03/03 03:34:55;;;;;;;53.83;32.05;;;0.40;99.90;;;;;;5086845;28;20463;-72
2022/03/03 03:37:21;;;;;;;51.63;31.33;;;0.40;99.90;;;;;;5069268;28;20044;-74
2022/03/03 03:39:47;;;;;;;52.78;29.77;;;0.40;99.90;;;;;;5086568;28;20041;-71
2022/03/03 03:42:12;;;;;;;48.85;30.15;;;0.40;99.90;;;;;;5087310;28;20055;-74
2022/03/03 03:44:38;;;;;;;51.10;30.50;;;0.30;99.90;;;;;;5067683;28;20077;-72
2022/03/03 03:47:05;;;;;;;55.47;32.50;;;0.30;99.90;;;;;;5065786;28;20033;-72
2022/03/03 03:49:31;;;;;;;53.20;31.42;;;0.30;99.90;;;;;;5099665;28;20052;-72
2022/03/03 03:51:57;;;;;;;52.47;30.27;;;0.30;99.90;;;;;;5065873;28;20045;-72
2022/03/03 03:54:22;;;;;;;50.75;31.33;;;0.30;99.90;;;;;;5066190;28;20037;-74
2022/03/03 03:56:48;;;;;;;52.83;30.55;;;0.30;99.90;;;;;;5099732;28;20037;-74
2022/03/03 03:59:14;;;;;;;50.22;31.50;;;0.30;99.90;;;;;;5098934;28;20048;-73
2022/03/03 04:01:40;;;;;;;57.58;32.65;;;0.30;99.90;;;;;;5065372;28;20045;-73
2022/03/03 04:04:06;;;;;;;53.88;31.75;;;0.30;99.90;;;;;;5065554;28;20491;-74
2022/03/03 04:06:32;;;;;;;56.20;33.58;;;0.20;99.90;;;;;;5082465;28;20084;-72
2022/03/03 04:08:58;;;;;;;56.13;33.60;;;0.20;99.90;;;;;;5099517;28;20068;-74
2022/03/03 04:11:24;;;;;;;58.97;32.72;;;0.20;99.90;;;;;;5081748;28;20053;-71
2022/03/03 04:13:50;;;;;;;57.03;33.35;;;0.20;99.90;;;;;;5064609;28;20044;-71
2022/03/03 04:16:16;;;;;;;58.17;33.28;;;0.20;99.90;;;;;;5066422;28;20033;-72
2022/03/03 04:18:42;;;;;;;59.40;34.00;;;0.20;99.90;;;;;;5073113;28;20048;-73
2022/03/03 04:21:07;;;;;;;58.30;33.22;;;0.20;99.90;;;;;;5098215;28;20041;-73
2022/03/03 04:23:34;;;;;;;57.33;34.67;;;0.20;99.90;;;;;;5064978;28;20069;-72
2022/03/03 04:25:59;;;;;;;60.13;33.25;;;0.10;99.90;;;;;;5064199;28;20100;-72
2022/03/03 04:28:25;;;;;;;52.00;31.95;;;0.10;99.90;;;;;;5047054;28;20052;-72
2022/03/03 04:30:51;;;;;;;53.97;32.55;;;0.10;99.90;;;;;;5098139;28;20051;-72
2022/03/03 04:33:17;;;;;;;52.70;32.53;;;0.20;99.90;;;;;;5064410;28;20088;-71
2022/03/03 04:35:42;;;;;;;54.35;32.20;;;0.20;99.90;;;;;;5047317;28;20097;-72
2022/03/03 04:38:08;;;;;;;56.63;32.75;;;0.10;99.90;;;;;;5097608;28;20490;-71
2022/03/03 04:40:34;;;;;;;51.78;31.27;;;0.20;99.90;;;;;;5097487;28;20100;-72
2022/03/03 04:43:00;;;;;;;52.78;30.88;;;0.20;99.90;;;;;;5063439;28;20041;-72
2022/03/03 04:45:25;;;;;;;52.05;31.52;;;0.20;99.90;;;;;;5097166;28;20071;-71
2022/03/03 04:47:51;;;;;;;50.50;30.25;;;0.20;99.90;;;;;;5097234;28;20045;-71
2022/03/03 04:50:17;;;;;;;53.63;31.90;;;0.20;99.90;;;;;;5064043;28;20037;-72
2022/03/03 04:52:43;;;;;;;54.25;30.95;;;0.10;99.90;;;;;;5097557;28;20028;-71
2022/03/03 04:55:09;;;;;;;50.58;30.35;;;0.10;99.90;;;;;;5098114;28;20033;-72
2022/03/03 04:57:35;;;;;;;48.08;29.95;;;0.20;99.90;;;;;;5064893;28;20131;-72
2022/03/03 05:00:01;;;;;;;52.90;30.08;;;0.10;99.90;;;;;;5063898;28;20094;-72
2022/03/03 05:02:27;;;;;;;49.17;30.08;;;0.20;99.90;;;;;;5080459;28;20049;-74
2022/03/03 05:04:53;;;;;;;50.05;30.33;;;0.20;99.90;;;;;;5047273;28;20127;-72
2022/03/03 05:07:19;;;;;;;50.35;30.02;;;0.20;99.90;;;;;;5060594;28;20066;-72
2022/03/03 05:09:45;;;;;;;48.28;29.58;;;0.20;99.90;;;;;;5083856;28;20052;-72
2022/03/03 05:12:11;;;;;;;51.65;30.15;;;0.20;99.90;;;;;;5084339;28;20044;-71
2022/03/03 05:14:36;;;;;;;48.97;29.00;;;0.20;99.90;;;;;;5084590;28;20040;-72
2022/03/03 05:17:02;;;;;;;50.90;29.25;;;0.20;99.90;;;;;;5084668;28;20036;-72
2022/03/03 05:19:28;;;;;;;48.97;29.92;;;0.30;99.90;;;;;;5068575;28;20048;-72
2022/03/03 05:21:54;;;;;;;48.05;28.70;;;0.20;99.90;;;;;;5068290;28;20040;-72
2022/03/03 05:24:19;;;;;;;46.33;28.92;;;0.30;99.90;;;;;;5085507;28;20032;-72
2022/03/03 05:26:45;;;;;;;45.88;28.15;;;0.20;99.90;;;;;;5084757;28;20076;-71
2022/03/03 05:29:11;;;;;;;44.67;26.48;;;0.30;99.90;;;;;;5067924;28;20089;-72
2022/03/03 05:31:37;;;;;;;44.10;26.25;;;0.20;99.90;;;;;;5084389;28;20067;-74
2022/03/03 05:34:03;;;;;;;43.30;26.80;;;0.20;99.90;;;;;;5084560;28;20066;-72
2022/03/03 05:36:30;;;;;;;43.15;26.25;;;0.20;99.90;;;;;;5083662;28;20040;-73
2022/03/03 05:38:57;;;;;;;43.50;27.67;;;0.20;99.90;;;;;;5084307;28;20037;-72
2022/03/03 05:41:23;;;;;;;44.22;27.08;;;0.20;99.90;;;;;;5067589;28;20108;-72
2022/03/03 05:43:50;;;;;;;43.80;26.80;;;0.20;99.90;;;;;;5083993;28;20360;-73
2022/03/03 05:46:16;;;;;;;45.17;27.33;;;0.20;99.90;;;;;;5084136;28;20467;-74
2022/03/03 05:48:42;;;;;;;41.45;26.58;;;0.20;99.90;;;;;;5066942;28;20044;-73
2022/03/03 05:51:08;;;;;;;42.60;27.08;;;0.20;99.90;;;;;;5083849;28;20042;-73
2022/03/03 05:53:34;;;;;;;44.38;27.10;;;0.30;99.90;;;;;;5071318;28;20043;-73
2022/03/03 05:56:07;;;;;;;42.45;26.65;;;0.20;99.90;;;;;;5071499;28;20036;-73
2022/03/03 05:58:40;;;;;;;44.25;27.48;;;0.20;99.90;;;;;;5089129;28;20044;-73
2022/03/03 06:01:08;;;;;;;42.92;26.20;;;0.20;99.90;;;;;;5088798;28;20044;-73
2022/03/03 06:03:34;;;;;;;40.15;26.25;;;0.20;99.90;;;;;;5069133;28;20087;-73
2022/03/03 06:06:31;;;;;;;43.50;25.90;;;0.20;99.90;;;;;;5084818;28;20126;-73
2022/03/03 06:09:14;;;;;;;41.70;26.38;;;0.20;99.90;;;;;;5068501;28;20546;-74
2022/03/03 06:11:48;;;;;;;42.95;26.25;;;0.10;99.90;;;;;;5067484;28;20044;-72
2022/03/03 06:14:23;;;;;;;41.45;26.35;;;0.10;99.90;;;;;;5047728;28;20033;-72
2022/03/03 06:16:50;;;;;;;38.30;25.33;;;0.10;99.90;;;;;;5080126;28;20102;-73
2022/03/03 06:19:19;;;;;;;43.22;26.50;;;0.10;99.90;;;;;;5063964;28;20068;-72
2022/03/03 06:21:45;;;;;;;41.20;26.17;;;0.10;99.90;;;;;;5064151;28;20037;-73
2022/03/03 06:24:11;;;;;;;40.83;26.13;;;0.10;99.90;;;;;;5046898;28;20099;-73
2022/03/03 06:26:37;;;;;;;42.35;26.63;;;0.00;99.90;;;;;;5080488;28;20041;-75
2022/03/03 06:29:04;;;;;;;42.67;26.30;;;0.00;99.90;;;;;;5047089;28;20045;-72
2022/03/03 06:31:29;;;;;;;40.60;25.83;;;0.00;99.90;;;;;;5064458;28;20068;-73
2022/03/03 06:33:55;;;;;;;41.83;25.70;;;0.00;99.90;;;;;;5081273;28;20046;-73
2022/03/03 06:36:21;;;;;;;40.58;26.27;;;0.00;99.90;;;;;;5046491;28;20033;-73
2022/03/03 06:38:46;;;;;;;39.28;26.55;;;0.00;99.90;;;;;;5047128;28;20034;-73
2022/03/03 06:41:12;;;;;;;39.75;25.95;;;0.00;99.90;;;;;;5084184;28;20041;-73
2022/03/03 06:43:38;;;;;;;45.58;26.92;;;0.00;99.90;;;;;;5083365;28;20087;-73
2022/03/03 06:46:05;;;;;;;44.35;26.75;;;0.00;99.90;;;;;;5063193;28;20048;-72
2022/03/03 06:48:32;;;;;;;42.35;26.63;;;-0.10;99.90;;;;;;5080419;28;20041;-73
2022/03/03 06:51:02;;;;;;;44.65;27.60;;;0.00;99.90;;;;;;5031539;28;20463;-73
2022/03/03 06:53:30;;;;;;;43.63;26.83;;;0.00;99.90;;;;;;5081253;28;20045;-74
2022/03/03 06:56:03;;;;;;;40.63;26.33;;;0.00;99.90;;;;;;5030811;28;20041;-73
2022/03/03 06:58:31;;;;;;;44.25;26.33;;;0.00;99.90;;;;;;5029788;28;20049;-72
2022/03/03 07:00:58;;;;;;;40.13;26.08;;;0.00;99.90;;;;;;5077028;28;20055;-72
2022/03/03 07:03:25;;;;;;;45.75;27.40;;;0.00;99.90;;;;;;5086221;28;20052;-73
2022/03/03 07:05:51;;;;;;;41.45;25.73;;;0.00;99.90;;;;;;5087734;28;20075;-73
2022/03/03 07:08:19;;;;;;;41.33;26.88;;;0.10;99.90;;;;;;5087161;28;20044;-72
2022/03/03 07:10:48;;;;;;;41.20;26.95;;;0.10;99.90;;;;;;5079661;28;20072;-73
2022/03/03 07:13:18;;;;;;;42.95;26.88;;;0.10;99.90;;;;;;5066297;28;20049;-71
2022/03/03 07:15:53;;;;;;;43.22;27.90;;;0.10;99.90;;;;;;5066621;28;20443;-72
2022/03/03 07:18:22;;;;;;;44.10;27.15;;;0.20;99.90;;;;;;5067924;28;20059;-72
2022/03/03 07:21:10;;;;;;;45.05;27.63;;;0.20;99.90;;;;;;5048240;28;20053;-72
2022/03/03 07:23:40;;;;;;;44.88;26.75;;;0.30;99.90;;;;;;5067139;28;20056;-73
2022/03/03 07:26:08;;;;;;;40.33;25.90;;;0.30;99.90;;;;;;5067135;28;20068;-73
2022/03/03 07:28:38;;;;;;;39.45;26.42;;;0.40;99.90;;;;;;5066337;28;20048;-72
2022/03/03 07:31:03;;;;;;;41.20;26.77;;;0.40;99.90;;;;;;5066843;28;20084;-73
2022/03/03 07:33:45;;;;;;;44.08;25.90;;;0.50;99.90;;;;;;5067751;28;20049;-73
2022/03/03 07:36:16;;;;;;;41.42;25.77;;;0.50;99.90;;;;;;5051010;28;20045;-72
2022/03/03 07:38:45;;;;;;;44.15;26.13;;;0.60;99.90;;;;;;5067765;28;20041;-72
2022/03/03 07:41:11;;;;;;;40.65;26.67;;;0.70;99.90;;;;;;5065390;28;20045;-73
2022/03/03 07:43:37;;;;;;;39.72;25.23;;;0.80;99.90;;;;;;5049369;28;20064;-73
2022/03/03 07:46:03;;;;;;;40.25;25.13;;;0.90;99.90;;;;;;5066649;28;20044;-72
2022/03/03 07:48:31;;;;;;;40.45;25.38;;;1.00;99.90;;;;;;5066273;28;20033;-73
2022/03/03 07:50:58;;;;;;;40.90;25.92;;;1.20;99.90;;;;;;5067828;28;20036;-73
2022/03/03 07:53:24;;;;;;;42.55;25.63;;;1.30;99.90;;;;;;5063098;28;20522;-75
2022/03/03 07:55:53;;;;;;;35.90;23.85;;;1.40;99.90;;;;;;5046904;28;20056;-73
2022/03/03 07:58:21;;;;;;;39.05;25.42;;;1.50;99.90;;;;;;5030544;28;20049;-75
2022/03/03 08:00:53;;;;;;;37.13;23.90;;;1.70;99.90;;;;;;5047662;28;20468;-73
2022/03/03 08:03:21;;;;;;;40.28;24.05;;;1.80;99.90;;;;;;5046856;28;20113;-73
2022/03/03 08:05:50;;;;;;;38.13;24.08;;;1.90;99.90;;;;;;5014535;28;20076;-73
2022/03/03 08:08:21;;;;;;;36.67;24.73;;;2.10;99.90;;;;;;5048122;28;20069;-73
2022/03/03 08:10:48;;;;;;;36.58;23.30;;;2.20;99.90;;;;;;5047648;28;20041;-73
2022/03/03 08:13:16;;;;;;;35.83;23.00;;;2.30;99.90;;;;;;5015694;28;20053;-74
2022/03/03 08:15:43;;;;;;;36.63;23.73;;;2.50;99.90;;;;;;5047484;28;20057;-73
2022/03/03 08:18:10;;;;;;;35.17;23.13;;;2.60;99.90;;;;;;5048245;28;20113;-71
2022/03/03 08:20:38;;;;;;;37.03;24.27;;;2.80;99.90;;;;;;5047132;28;20041;-70
2022/03/03 08:23:06;;;;;;;36.08;23.23;;;2.90;99.90;;;;;;5048333;28;20101;-69
2022/03/03 08:25:35;;;;;;;35.97;23.45;;;3.10;99.90;;;;;;5069357;28;20095;-73
2022/03/03 08:28:03;;;;;;;36.20;22.65;;;3.20;99.90;;;;;;5104085;28;20041;-69
2022/03/03 08:30:29;;;;;;;34.88;22.58;;;3.40;99.90;;;;;;5104744;28;20071;-70
2022/03/03 08:33:10;;;;;;;39.78;23.08;;;3.60;99.90;;;;;;5069991;28;20086;-68
2022/03/03 08:35:39;;;;;;;38.05;22.65;;;3.70;99.90;;;;;;5071938;28;20053;-69
2022/03/03 08:38:14;;;;;;;35.83;22.35;;;3.90;99.90;;;;;;5054589;28;20040;-79
2022/03/03 08:40:40;;;;;;;34.40;22.83;;;4.00;99.90;;;;;;5082495;28;20047;-70
2022/03/03 08:43:06;;;;;;;34.45;22.00;;;4.20;99.90;;;;;;5091641;28;20040;-69
2022/03/03 08:45:35;;;;;;;37.90;21.50;;;4.30;99.90;;;;;;5091294;28;20052;-70
2022/03/03 08:48:06;;;;;;;32.95;21.27;;;4.50;99.90;;;;;;5075511;28;20040;-70
2022/03/03 08:50:35;;;;;;;37.78;23.10;;;4.70;99.90;;;;;;5091791;28;20044;-69
2022/03/03 08:53:01;;;;;;;34.45;21.88;;;4.80;99.90;;;;;;5091612;28;20063;-69
2022/03/03 08:55:28;;;;;;;33.28;21.30;;;4.90;99.90;;;;;;5090640;28;20037;-70
2022/03/03 08:57:55;;;;;;;35.78;22.77;;;5.10;99.90;;;;;;5075556;28;20055;-70
2022/03/03 09:00:21;;;;;;;30.55;22.38;;;5.30;99.90;;;;;;5089740;28;20041;-70
2022/03/03 09:02:47;;;;;;;32.15;21.88;;;5.50;99.90;;;;;;5093186;28;20047;-70
2022/03/03 09:05:13;;;;;;;31.10;21.92;;;5.70;99.90;;;;;;5091958;28;20095;-73
2022/03/03 09:07:39;;;;;;;33.03;22.73;;;5.80;99.90;;;;;;5092821;28;20054;-70
2022/03/03 09:10:06;;;;;;;32.58;21.73;;;5.90;99.90;;;;;;5090109;28;20040;-70
2022/03/03 09:12:32;;;;;;;32.92;22.10;;;6.00;99.90;;;;;;5104110;28;20048;-70
2022/03/03 09:14:58;;;;;;;34.10;22.75;;;6.00;99.90;;;;;;5072627;28;20083;-71
2022/03/03 09:17:24;;;;;;;31.67;22.20;;;6.20;99.90;;;;;;5073278;28;20037;-71
2022/03/03 09:19:50;;;;;;;30.67;21.02;;;6.30;99.90;;;;;;5071951;28;20123;-70
2022/03/03 09:22:16;;;;;;;32.20;21.67;;;6.50;99.90;;;;;;5056667;28;20138;-71
2022/03/03 09:24:41;;;;;;;33.28;23.38;;;6.60;99.90;;;;;;5108050;28;20045;-71
2022/03/03 09:27:07;;;;;;;36.22;21.90;;;6.70;99.90;;;;;;5109315;28;20047;-71
2022/03/03 09:29:33;;;;;;;32.55;21.55;;;6.80;99.90;;;;;;5110548;28;20037;-70
2022/03/03 09:32:00;;;;;;;32.70;22.20;;;6.90;99.60;;;;;;5076976;28;20033;-71
2022/03/03 09:34:26;;;;;;;31.33;22.08;;;7.00;98.70;;;;;;5101485;28;20056;-71
2022/03/03 09:36:52;;;;;;;32.58;21.80;;;7.10;96.10;;;;;;5077048;28;20021;-71
2022/03/03 09:39:17;;;;;;;29.95;20.88;;;7.20;96.70;;;;;;5077131;28;20076;-70
2022/03/03 09:41:43;;;;;;;32.72;21.17;;;7.30;94.70;;;;;;5095936;28;20043;-71
2022/03/03 09:44:09;;;;;;;29.75;20.67;;;7.40;92.10;;;;;;5081754;28;20036;-70
2022/03/03 09:46:36;;;;;;;33.47;20.55;;;7.50;92.00;;;;;;5097366;28;20051;-70
2022/03/03 09:49:03;;;;;;;29.10;20.63;;;7.50;91.60;;;;;;5096347;28;20043;-71
2022/03/03 09:51:29;;;;;;;30.20;20.55;;;7.50;90.80;;;;;;5097770;28;20040;-70
2022/03/03 09:53:55;;;;;;;28.85;20.60;;;7.60;90.00;;;;;;5098915;28;20044;-70
2022/03/03 09:56:22;;;;;;;28.02;19.92;;;7.70;89.10;;;;;;5097391;28;20040;-70
2022/03/03 09:58:48;;;;;;;32.08;20.90;;;7.70;87.30;;;;;;5097722;28;20068;-70
2022/03/03 10:01:14;;;;;;;28.63;19.73;;;7.70;85.50;;;;;;5080801;28;20033;-70
2022/03/03 10:03:41;;;;;;;29.00;20.38;;;7.70;83.30;;;;;;5096384;28;20036;-70
2022/03/03 10:06:10;;;;;;;28.48;19.23;;;7.80;82.50;;;;;;5096810;28;20040;-70
2022/03/03 10:08:37;;;;;;;29.58;20.27;;;7.90;80.80;;;;;;5080313;28;20058;-71
2022/03/03 10:11:03;;;;;;;26.45;19.42;;;8.00;80.40;;;;;;5083986;28;20048;-70
2022/03/03 10:13:49;;;;;;;25.63;19.30;;;8.00;78.40;;;;;;5076457;28;20076;-70
2022/03/03 10:16:23;;;;;;;30.30;18.38;;;8.00;75.70;;;;;;5039795;28;20052;-70
2022/03/03 10:19:01;;;;;;;26.42;18.25;;;8.00;77.20;;;;;;5090781;28;20093;-71
2022/03/03 10:21:28;;;;;;;28.80;18.73;;;8.10;76.10;;;;;;5089369;28;20037;-70
2022/03/03 10:23:54;;;;;;;30.80;18.95;;;8.20;77.10;;;;;;5089480;28;20056;-70
2022/03/03 10:26:19;;;;;;;29.10;17.98;;;8.30;77.40;;;;;;5090631;28;20093;-73
2022/03/03 10:28:49;;;;;;;28.38;18.65;;;8.40;78.00;;;;;;5091423;28;20052;-70
2022/03/03 10:31:22;;;;;;;30.83;19.05;;;8.50;77.10;;;;;;5073072;28;20038;-74
2022/03/03 10:33:49;;;;;;;25.30;17.77;;;8.60;75.80;;;;;;5074027;28;20092;-70
2022/03/03 10:36:31;;;;;;;27.70;18.30;;;8.60;74.40;;;;;;5090822;28;20038;-71
2022/03/03 10:38:59;;;;;;;27.10;17.60;;;8.80;74.50;;;;;;5089242;28;20025;-71
2022/03/03 10:41:43;;;;;;;26.05;17.83;;;8.90;73.30;;;;;;5090598;28;20041;-73
2022/03/03 10:44:20;;;;;;;26.38;17.38;;;8.90;70.60;;;;;;5090338;28;20044;-70
2022/03/03 10:47:07;;;;;;;25.90;17.75;;;9.00;70.90;;;;;;5090448;28;20089;-71
2022/03/03 10:49:34;;;;;;;23.10;16.63;;;9.10;69.70;;;;;;5056679;28;20050;-71
2022/03/03 10:52:15;;;;;;;25.85;17.52;;;9.20;70.60;;;;;;5040811;28;20044;-71
2022/03/03 10:54:52;;;;;;;25.65;17.15;;;9.40;69.50;;;;;;5091237;28;20097;-71
2022/03/03 10:58:07;;;;;;;24.75;17.08;;;9.50;69.10;;;;;;5091174;28;20021;-72
2022/03/03 11:00:35;;;;;;;22.83;17.00;;;9.60;68.80;;;;;;5060684;28;20041;-72
2022/03/03 11:03:06;;;;;;;26.83;17.98;;;9.70;68.60;;;;;;5041021;28;20049;-72
2022/03/03 11:05:33;;;;;;;27.17;17.70;;;9.80;68.20;;;;;;5089316;28;20048;-71
2022/03/03 11:07:59;;;;;;;23.45;17.02;;;10.00;67.60;;;;;;5111114;28;20075;-72
2022/03/03 11:10:27;;;;;;;24.05;16.60;;;10.00;67.50;;;;;;5077326;28;20104;-71
2022/03/03 11:12:53;;;;;;;23.50;16.67;;;10.10;66.30;;;;;;5110489;28;20090;-73
2022/03/03 11:15:21;;;;;;;22.45;16.05;;;10.20;66.10;;;;;;5060588;28;20051;-71
2022/03/03 11:17:48;;;;;;;21.98;16.50;;;10.40;65.70;;;;;;5061024;28;20032;-72
2022/03/03 11:20:16;;;;;;;20.67;15.13;;;10.50;65.00;;;;;;5094378;28;20032;-71
2022/03/03 11:22:43;;;;;;;22.75;15.15;;;10.60;64.30;;;;;;5111213;28;20072;-72
2022/03/03 11:25:16;;;;;;;20.50;14.93;;;10.70;63.40;;;;;;5111151;28;20525;-71
2022/03/03 11:27:44;;;;;;;19.95;14.30;;;10.70;62.80;;;;;;5111050;28;20037;-71
2022/03/03 11:30:12;;;;;;;19.13;13.93;;;10.90;64.60;;;;;;5082573;28;20036;-70
2022/03/03 11:32:37;;;;;;;20.05;14.18;;;11.10;63.50;;;;;;5092976;28;20060;-69
2022/03/03 11:35:08;;;;;;;22.30;15.00;;;11.20;64.20;;;;;;5082886;28;20037;-70
2022/03/03 11:38:37;;;;;;;20.70;14.00;;;11.40;63.30;;;;;;5060502;28;20040;-71
2022/03/03 11:41:04;;;;;;;20.42;13.18;;;11.50;60.60;;;;;;5071681;28;20059;-71
2022/03/03 11:43:43;;;;;;;24.83;15.23;;;11.60;61.90;;;;;;5077654;28;20029;-70
2022/03/03 11:46:09;;;;;;;20.70;13.70;;;11.70;61.30;;;;;;5093461;28;20101;-70
2022/03/03 11:48:39;;;;;;;19.85;13.68;;;11.80;61.30;;;;;;5093446;28;20039;-70
2022/03/03 11:51:32;;;;;;;18.70;14.15;;;11.90;60.40;;;;;;5096014;28;20060;-71
2022/03/03 11:54:10;;;;;;;18.27;12.77;;;11.90;59.30;;;;;;5096454;28;20092;-71
2022/03/03 11:56:55;;;;;;;19.92;14.15;;;12.10;60.10;;;;;;5096539;28;20100;-71
2022/03/03 11:59:32;;;;;;;18.42;13.75;;;12.20;61.00;;;;;;5096547;28;20032;-70
2022/03/03 12:01:57;;;;;;;18.00;14.10;;;12.30;60.90;;;;;;5084376;28;20041;-70
2022/03/03 12:04:26;;;;;;;19.45;14.07;;;12.40;60.40;;;;;;5075781;28;20101;-71
2022/03/03 12:06:54;;;;;;;18.42;13.98;;;12.50;60.50;;;;;;5076450;28;20068;-71
2022/03/03 12:09:19;;;;;;;19.30;14.20;;;12.50;59.80;;;;;;5076458;28;20071;-71
2022/03/03 12:11:45;;;;;;;18.85;13.90;;;12.50;59.20;;;;;;5075901;28;20105;-70
2022/03/03 12:14:32;;;;;;;18.40;12.45;;;12.50;59.10;;;;;;5076565;28;20431;-71
2022/03/03 12:17:36;;;;;;;18.45;13.60;;;12.60;58.30;;;;;;5076525;28;20058;-70
2022/03/03 12:20:24;;;;;;;17.17;11.85;;;12.60;57.10;;;;;;5076808;28;20044;-70
2022/03/03 12:23:08;;;;;;;20.15;12.68;;;12.80;59.00;;;;;;5077161;28;20163;-72
2022/03/03 12:25:57;;;;;;;16.30;11.80;;;13.00;58.30;;;;;;5076641;28;20056;-70
2022/03/03 12:28:25;;;;;;;;;;;13.10;57.80;;;;;;5077082;28;20051;-71
2022/03/03 12:30:53;;;;;;;16.88;11.85;;;13.10;55.50;;;;;;5076841;28;19912;-71
2022/03/03 12:33:27;;;;;;;16.70;11.60;;;13.20;58.80;;;;;;5076521;28;20033;-71
2022/03/03 12:35:59;;;;;;;14.20;10.75;;;13.20;58.30;;;;;;5075968;28;20052;-70
2022/03/03 12:38:25;;;;;;;15.35;11.27;;;13.30;58.20;;;;;;5110149;28;20037;-70
2022/03/03 12:40:52;;;;;;;18.50;11.98;;;13.20;57.10;;;;;;5076524;28;20013;-70